Rialto, CA (92376)

5:16 PM PDT on August 27, 2015 (GMT -0700)
Cat Crossing Ink | | Change Station
CLOSE
Current Station
Personal Weather Station
Location: Rialto, CA
Elevation: 1125 ft
Nearby Weather Stations

Elev 1125 ft 34.08 °N, 117.38 °W | Updated 22 seconds ago

Clear
Clear
98.0 °F
Feels Like 96 °F
N
9.6
Wind Variable Wind from WSW
Gusts 15.0 mph

Today
High -- | Low -- °F
--% Chance of Precip.
Yesterday
High -- | Low -- °F
Precip. -- in
6:19 AM 7:22 PM
Waxing Gibbous, 95% visible
Pressure 29.89 in
Visibility 7.0 miles
Clouds Few 10000 ft
Heat Index 96 °F
Dew Point 55 °F
Humidity 24%
Rainfall 0.00 in
Snow Depth Not available.
UV 3 out of 12
Pollen 5.50 out of 12
Air Quality Not available.
Flu Activity Not available.
METAR KSBD 272347Z 27014KT 7SM FEW100 38/07 A2989
Pressure 29.89 in
Visibility 7.0 miles
Clouds Few 10000 ft
Heat Index 96 °F
Dew Point 55 °F
Humidity 24%
Rainfall 0.00 in
Snow Depth Not available.
UV 3 out of 12
Pollen 5.50 out of 12
Air Quality Not available.
Flu Activity Not available.
METAR KSBD 272347Z 27014KT 7SM FEW100 38/07 A2989

10-Day Weather Forecast

×

Almanac

Astronomy

Aug. 27, 2015 Rise Set
Actual Time
Civil Twilight
Nautical Twilight
Astronomical Twilight
Moon
Length of Visible Light
Length of Day
Tomorrow will be .
, % of the Moon is Illuminated

Today's Extremes

State Highs State Lows

Community

WunderPhotos

Upload Photos

1,850,272 photos uploaded!

WunderBlogs® & News

Nearby

Air Quality

  Air Quality AQ Index Pollutant
Not available.

Snow Depth

Station Depth Elevation

Earthquake Activity

City Distance Mag. Time & Date
Minimum magnitude displayed is 2.5.

Coastal Water Temperatures

Place Temperature

Stations

Nearby Weather Stations

Station Location Temp. Windchill Dew Point Humidity Wind Precip. Elev Updated Type